Moby Aki — IBVV — position and weather

sailwx.info

Track history (hours):
 
Tides and Currents Weather Stations Pressure Air Temp Water Temp Dewpoint Dewpoint Depression Visibility Wind Speed Wind Dir Waves Ship Positions

Moby Aki

Last reported at 2014-Jul-30 06:28 UTC. Time now 2014-Jul-30 15:10 UTC.
Position N 40°55' E 009°35'.

Length 175 m; draft 6.9 m.

Type: Passenger vessel. MMSI: 247132400.

Date/timePositionNaut miles runAvg speedWind from/ knotsBaromVisibWave heightAir tempDewpointWater temp
2014-Jul-30 06:28N 40°55' E 009°35'3 2.9
2014-Jul-30 05:33N 40°55' E 009°31'2 2.0
2014-Jul-30 04:33N 40°55' E 009°34'11619.3
2014-Jul-29 22:33N 42°50' E 009°60'2020.3
2014-Jul-29 21:33N 43°09' E 010°07'2120.7
2014-Jul-29 20:34N 43°30' E 010°13'5 5.0
2014-Jul-29 19:32N 43°33' E 010°18'0 0.0
2014-Jul-29 18:32N 43°33' E 010°18'0 0.0
2014-Jul-29 17:32N 43°33' E 010°18'0 0.0
2014-Jul-29 16:29N 43°33' E 010°18'6 6.9
2014-Jul-29 15:34N 43°28' E 010°13'2524.8
2014-Jul-29 14:33N 43°04' E 010°05'13124.3
2014-Jul-29 09:11N 40°55' E 009°33'2 1.0
2014-Jul-29 07:32N 40°55' E 009°31'0 0.0
2014-Jul-29 05:31N 40°55' E 009°31'11121.3
2014-Jul-29 00:17N 42°45' E 010°00'1925.6
2014-Jul-28 23:33N 43°03' E 010°05'2625.7
2014-Jul-28 22:34N 43°28' E 010°12'7 6.6
2014-Jul-28 21:33N 43°33' E 010°18'0 0.1
2014-Jul-28 20:33N 43°33' E 010°18'1818.1
2014-Jul-28 19:34N 43°16' E 010°10'11226.3
2014-Jul-28 15:19N 41°26' E 009°45'2225.6
2014-Jul-28 14:28N 41°04' E 009°41'1212.2
2014-Jul-28 13:31N 40°55' E 009°31'0 0.2
2014-Jul-28 12:33N 40°55' E 009°32'8223.5
2014-Jul-28 09:04N 42°16' E 009°54'1326.7
2014-Jul-28 08:33N 42°29' E 009°57'2926.7
2014-Jul-28 07:29N 42°57' E 010°03'2527.0
2014-Jul-28 06:34N 43°22' E 010°11'1312.1
2014-Jul-28 05:31N 43°33' E 010°18'0 0.0
2014-Jul-28 04:31N 43°33' E 010°18'7 7.2
2014-Jul-28 03:33N 43°27' E 010°13'2121.4
2014-Jul-28 02:34N 43°07' E 010°06'2322.6
2014-Jul-28 01:34N 42°45' E 009°60'2323.4
2014-Jul-28 00:33N 42°21' E 009°55'8821.9
2014-Jul-27 20:33N 40°55' E 009°33'1 1.1
2014-Jul-27 19:31N 40°55' E 009°31'0 0.0
2014-Jul-27 18:31N 40°55' E 009°31'9121.1
2014-Jul-27 14:12N 42°17' E 010°26'1726.3
2014-Jul-27 13:33N 42°33' E 010°31'25 1.9
2014-Jul-27 00:33N 42°39' E 009°58'2626.6
2014-Jul-26 23:34N 43°05' E 010°04'2626.5
2014-Jul-26 22:34N 43°31' E 010°13'4 4.2
2014-Jul-26 21:31N 43°33' E 010°18'0 0.4
2014-Jul-26 20:34N 43°33' E 010°17'2222.1
2014-Jul-26 19:33N 43°12' E 010°09'2625.6
2014-Jul-26 18:34N 42°47' E 010°00'10 0.9
2014-Jul-26 07:32N 42°57' E 010°03'2626.3
2014-Jul-26 06:33N 43°21' E 010°11'1312.7
2014-Jul-26 05:32N 43°33' E 010°18'0 0.0
2014-Jul-26 04:32N 43°33' E 010°18'6 6.1
2014-Jul-26 03:33N 43°28' E 010°14'2524.9
2014-Jul-26 02:34N 43°04' E 010°06'2525.0
2014-Jul-26 01:33N 42°39' E 009°58'2725.0
2014-Jul-26 00:28N 42°12' E 009°53'2325.0
2014-Jul-25 23:33N 41°50' E 009°50'2524.8
2014-Jul-25 22:33N 41°25' E 009°45'2524.8
2014-Jul-25 21:33N 41°01' E 009°41'7 2.9
2014-Jul-25 19:07N 40°55' E 009°35'610.3
2014-Jul-25 18:34N 40°59' E 009°41'2626.0
2014-Jul-25 17:33N 41°23' E 009°55'7826.1
2014-Jul-25 14:33N 42°36' E 010°30'15 7.3
2014-Jul-25 12:30N 42°51' E 010°34'11816.6
2014-Jul-25 05:21N 40°59' E 009°41'12526.0
2014-Jul-25 00:33N 43°03' E 010°05'2626.3
2014-Jul-24 23:34N 43°28' E 010°13'6 5.8
2014-Jul-24 22:31N 43°33' E 010°18'0 0.0
2014-Jul-24 21:31N 43°33' E 010°18'6 6.7
2014-Jul-24 20:33N 43°28' E 010°13'2825.8
2014-Jul-24 19:29N 43°01' E 010°05'21 1.8
2014-Jul-24 08:09N 42°44' E 009°48'1626.3
2014-Jul-24 07:32N 42°58' E 009°58'2626.4
2014-Jul-24 06:34N 43°23' E 010°09'1211.4
2014-Jul-24 05:31N 43°33' E 010°18'0 0.0
2014-Jul-24 04:31N 43°33' E 010°18'5 5.7
2014-Jul-24 03:33N 43°30' E 010°12'2323.5
2014-Jul-24 02:34N 43°07' E 010°04'2323.5
2014-Jul-24 01:34N 42°44' E 009°57'2424.2
2014-Jul-24 00:34N 42°20' E 009°54'7223.7
2014-Jul-23 21:30N 41°08' E 009°43'1515.9
2014-Jul-23 20:33N 40°55' E 009°32'1 0.5
2014-Jul-23 19:31N 40°55' E 009°31'29 9.6
2014-Jul-23 16:29N 41°19' E 009°53'2425.9
2014-Jul-23 15:33N 41°41' E 010°06'3726.3
2014-Jul-23 14:09N 42°15' E 010°25'1826.4
2014-Jul-23 13:28N 42°33' E 010°30'2010.7
2014-Jul-23 11:34N 42°53' E 010°34'2625.3
2014-Jul-23 10:31N 42°27' E 010°29'25 2.5
2014-Jul-23 00:27N 42°22' E 009°56'2023.0
2014-Jul-22 23:33N 42°42' E 009°60'2323.3
2014-Jul-22 22:34N 43°05' E 010°05'2322.9
2014-Jul-22 21:34N 43°28' E 010°12'7 6.9
2014-Jul-22 20:32N 43°33' E 010°18'0 0.0
2014-Jul-22 19:32N 43°33' E 010°18'9 9.1
2014-Jul-22 18:34N 43°25' E 010°12'2625.6
2014-Jul-22 17:34N 43°01' E 010°03'2625.9
2014-Jul-22 16:34N 42°35' E 009°56'2726.6
2014-Jul-22 15:34N 42°09' E 009°53'47 3.1
2014-Jul-22 00:09N 42°56' E 010°02'1525.8
2014-Jul-21 23:34N 43°11' E 010°07'2322.9
2014-Jul-21 22:34N 43°32' E 010°17'1 1.0
2014-Jul-21 21:31N 43°33' E 010°18'0 0.5
2014-Jul-21 20:33N 43°33' E 010°17'415.7
2014-Jul-21 20:18N 43°30' E 010°14'1925.0
2014-Jul-21 19:34N 43°12' E 010°08'11 0.9
2014-Jul-21 07:23N 43°01' E 010°05'2226.5
2014-Jul-21 06:34N 43°22' E 010°11'1211.4
2014-Jul-21 05:30N 43°33' E 010°18'0 0.0
2014-Jul-21 04:33N 43°33' E 010°18'6 5.9
2014-Jul-21 03:33N 43°29' E 010°13'2121.3
2014-Jul-21 02:33N 43°08' E 010°07'13014.1
2014-Jul-20 17:19N 40°59' E 009°42'2625.5
2014-Jul-20 16:19N 41°23' E 009°55'2026.1
2014-Jul-20 15:33N 41°41' E 010°06'2726.2
2014-Jul-20 14:32N 42°05' E 010°20'3026.3
2014-Jul-20 13:24N 42°34' E 010°32'2225.6
2014-Jul-20 12:33N 42°56' E 010°34'0 0.4
2014-Jul-20 11:33N 42°56' E 010°33'2624.1
2014-Jul-20 10:29N 42°30' E 010°30'2526.0
2014-Jul-20 09:32N 42°06' E 010°21'2626.3
2014-Jul-20 08:33N 41°43' E 010°07'3526.6
2014-Jul-20 07:15N 41°11' E 009°48'1824.0
2014-Jul-20 06:31N 40°56' E 009°36'  
Track history (hours):
 
Tides and Currents Weather Stations Pressure Air Temp Water Temp Dewpoint Dewpoint Depression Visibility Wind Speed Wind Dir Waves Ship Positions

Moby Aki

Last reported at 2014-Jul-30 06:28 UTC. Time now 2014-Jul-30 15:10 UTC.
Position N 40°55' E 009°35'.

Length 175 m; draft 6.9 m.

Type: Passenger vessel. MMSI: 247132400.

Date/timePositionNaut miles runAvg speedWind from/ knotsBaromVisibWave heightAir tempDewpointWater temp
2014-Jul-30 06:28N 40°55' E 009°35'3 2.9
2014-Jul-30 05:33N 40°55' E 009°31'2 2.0
2014-Jul-30 04:33N 40°55' E 009°34'11619.3
2014-Jul-29 22:33N 42°50' E 009°60'2020.3
2014-Jul-29 21:33N 43°09' E 010°07'2120.7
2014-Jul-29 20:34N 43°30' E 010°13'5 5.0
2014-Jul-29 19:32N 43°33' E 010°18'0 0.0
2014-Jul-29 18:32N 43°33' E 010°18'0 0.0
2014-Jul-29 17:32N 43°33' E 010°18'0 0.0
2014-Jul-29 16:29N 43°33' E 010°18'6 6.9
2014-Jul-29 15:34N 43°28' E 010°13'2524.8
2014-Jul-29 14:33N 43°04' E 010°05'13124.3
2014-Jul-29 09:11N 40°55' E 009°33'2 1.0
2014-Jul-29 07:32N 40°55' E 009°31'0 0.0
2014-Jul-29 05:31N 40°55' E 009°31'11121.3
2014-Jul-29 00:17N 42°45' E 010°00'1925.6
2014-Jul-28 23:33N 43°03' E 010°05'2625.7
2014-Jul-28 22:34N 43°28' E 010°12'7 6.6
2014-Jul-28 21:33N 43°33' E 010°18'0 0.1
2014-Jul-28 20:33N 43°33' E 010°18'1818.1
2014-Jul-28 19:34N 43°16' E 010°10'11226.3
2014-Jul-28 15:19N 41°26' E 009°45'2225.6
2014-Jul-28 14:28N 41°04' E 009°41'1212.2
2014-Jul-28 13:31N 40°55' E 009°31'0 0.2
2014-Jul-28 12:33N 40°55' E 009°32'8223.5
2014-Jul-28 09:04N 42°16' E 009°54'1326.7
2014-Jul-28 08:33N 42°29' E 009°57'2926.7
2014-Jul-28 07:29N 42°57' E 010°03'2527.0
2014-Jul-28 06:34N 43°22' E 010°11'1312.1
2014-Jul-28 05:31N 43°33' E 010°18'0 0.0
2014-Jul-28 04:31N 43°33' E 010°18'7 7.2
2014-Jul-28 03:33N 43°27' E 010°13'2121.4
2014-Jul-28 02:34N 43°07' E 010°06'2322.6
2014-Jul-28 01:34N 42°45' E 009°60'2323.4
2014-Jul-28 00:33N 42°21' E 009°55'8821.9
2014-Jul-27 20:33N 40°55' E 009°33'1 1.1
2014-Jul-27 19:31N 40°55' E 009°31'0 0.0
2014-Jul-27 18:31N 40°55' E 009°31'9121.1
2014-Jul-27 14:12N 42°17' E 010°26'1726.3
2014-Jul-27 13:33N 42°33' E 010°31'25 1.9
2014-Jul-27 00:33N 42°39' E 009°58'2626.6
2014-Jul-26 23:34N 43°05' E 010°04'2626.5
2014-Jul-26 22:34N 43°31' E 010°13'4 4.2
2014-Jul-26 21:31N 43°33' E 010°18'0 0.4
2014-Jul-26 20:34N 43°33' E 010°17'2222.1
2014-Jul-26 19:33N 43°12' E 010°09'2625.6
2014-Jul-26 18:34N 42°47' E 010°00'10 0.9
2014-Jul-26 07:32N 42°57' E 010°03'2626.3
2014-Jul-26 06:33N 43°21' E 010°11'1312.7
2014-Jul-26 05:32N 43°33' E 010°18'0 0.0
2014-Jul-26 04:32N 43°33' E 010°18'6 6.1
2014-Jul-26 03:33N 43°28' E 010°14'2524.9
2014-Jul-26 02:34N 43°04' E 010°06'2525.0
2014-Jul-26 01:33N 42°39' E 009°58'2725.0
2014-Jul-26 00:28N 42°12' E 009°53'2325.0
2014-Jul-25 23:33N 41°50' E 009°50'2524.8
2014-Jul-25 22:33N 41°25' E 009°45'2524.8
2014-Jul-25 21:33N 41°01' E 009°41'7 2.9
2014-Jul-25 19:07N 40°55' E 009°35'610.3
2014-Jul-25 18:34N 40°59' E 009°41'2626.0
2014-Jul-25 17:33N 41°23' E 009°55'7826.1
2014-Jul-25 14:33N 42°36' E 010°30'15 7.3
2014-Jul-25 12:30N 42°51' E 010°34'11816.6
2014-Jul-25 05:21N 40°59' E 009°41'12526.0
2014-Jul-25 00:33N 43°03' E 010°05'2626.3
2014-Jul-24 23:34N 43°28' E 010°13'6 5.8
2014-Jul-24 22:31N 43°33' E 010°18'0 0.0
2014-Jul-24 21:31N 43°33' E 010°18'6 6.7
2014-Jul-24 20:33N 43°28' E 010°13'2825.8
2014-Jul-24 19:29N 43°01' E 010°05'21 1.8
2014-Jul-24 08:09N 42°44' E 009°48'1626.3
2014-Jul-24 07:32N 42°58' E 009°58'2626.4
2014-Jul-24 06:34N 43°23' E 010°09'1211.4
2014-Jul-24 05:31N 43°33' E 010°18'0 0.0
2014-Jul-24 04:31N 43°33' E 010°18'5 5.7
2014-Jul-24 03:33N 43°30' E 010°12'2323.5
2014-Jul-24 02:34N 43°07' E 010°04'2323.5
2014-Jul-24 01:34N 42°44' E 009°57'2424.2
2014-Jul-24 00:34N 42°20' E 009°54'7223.7
2014-Jul-23 21:30N 41°08' E 009°43'1515.9
2014-Jul-23 20:33N 40°55' E 009°32'1 0.5
2014-Jul-23 19:31N 40°55' E 009°31'29 9.6
2014-Jul-23 16:29N 41°19' E 009°53'2425.9
2014-Jul-23 15:33N 41°41' E 010°06'3726.3
2014-Jul-23 14:09N 42°15' E 010°25'1826.4
2014-Jul-23 13:28N 42°33' E 010°30'2010.7
2014-Jul-23 11:34N 42°53' E 010°34'2625.3
2014-Jul-23 10:31N 42°27' E 010°29'25 2.5
2014-Jul-23 00:27N 42°22' E 009°56'2023.0
2014-Jul-22 23:33N 42°42' E 009°60'2323.3
2014-Jul-22 22:34N 43°05' E 010°05'2322.9
2014-Jul-22 21:34N 43°28' E 010°12'7 6.9
2014-Jul-22 20:32N 43°33' E 010°18'0 0.0
2014-Jul-22 19:32N 43°33' E 010°18'9 9.1
2014-Jul-22 18:34N 43°25' E 010°12'2625.6
2014-Jul-22 17:34N 43°01' E 010°03'2625.9
2014-Jul-22 16:34N 42°35' E 009°56'2726.6
2014-Jul-22 15:34N 42°09' E 009°53'47 3.1
2014-Jul-22 00:09N 42°56' E 010°02'1525.8
2014-Jul-21 23:34N 43°11' E 010°07'2322.9
2014-Jul-21 22:34N 43°32' E 010°17'1 1.0
2014-Jul-21 21:31N 43°33' E 010°18'0 0.5
2014-Jul-21 20:33N 43°33' E 010°17'415.7
2014-Jul-21 20:18N 43°30' E 010°14'1925.0
2014-Jul-21 19:34N 43°12' E 010°08'11 0.9
2014-Jul-21 07:23N 43°01' E 010°05'2226.5
2014-Jul-21 06:34N 43°22' E 010°11'1211.4
2014-Jul-21 05:30N 43°33' E 010°18'0 0.0
2014-Jul-21 04:33N 43°33' E 010°18'6 5.9
2014-Jul-21 03:33N 43°29' E 010°13'2121.3
2014-Jul-21 02:33N 43°08' E 010°07'13014.1
2014-Jul-20 17:19N 40°59' E 009°42'2625.5
2014-Jul-20 16:19N 41°23' E 009°55'2026.1
2014-Jul-20 15:33N 41°41' E 010°06'2726.2
2014-Jul-20 14:32N 42°05' E 010°20'3026.3
2014-Jul-20 13:24N 42°34' E 010°32'2225.6
2014-Jul-20 12:33N 42°56' E 010°34'0 0.4
2014-Jul-20 11:33N 42°56' E 010°33'2624.1
2014-Jul-20 10:29N 42°30' E 010°30'2526.0
2014-Jul-20 09:32N 42°06' E 010°21'2626.3
2014-Jul-20 08:33N 41°43' E 010°07'3526.6
2014-Jul-20 07:15N 41°11' E 009°48'1824.0
2014-Jul-20 06:31N 40°56' E 009°36'  

Dump ship's entire track history